Accueil
METAR-TAF:

METAR-TAF

Aéroports :

Aéroport de Nîmes–Alès–Camargue–Cévennes, Garons

Nîmes, France

latitude: 43-45N, longitude: 004-25E, altitude: 94 m

Observation

Le bulletin a été fait il y a 42 minutes, à 20:00 UTC
Vent 5 kt de ouest
Température 17°C
Humidité 88%
Pression 1027 hPa
Visibilité 10 km ou plus
pas de nuages en-dessous de 1500 mètres et pas de cumulonimbus.

METAR: LFTW 062000Z AUTO 27005KT CAVOK 17/15 Q1027

Heure: 22:42 (20:42 UTC)

Prévision

Le bulletin a été fait il y a 6 heures et 42 minutes, à 14:00 UTC
Prévision valable du 06 à 15 UTC au 07 à 15 UTC
Vent 5 kt de nord-est
Visibilité 10 km ou plus
pas de nuages en-dessous de 1500 mètres et pas de cumulonimbus.
Probabilité 30% :
Temporairement
du 07 à 02 UTC au 07 à 07 UTC
Visibilité: 2000 m
brume
Temporairement
du 07 à 12 UTC au 07 à 15 UTC
Vent 10 kt de sud

TAF: LFTW 061400Z 0615/0715 04005KT CAVOK PROB30 TEMPO 0702/0707 2000 BR TEMPO 0712/0715 17010KT

Observations et prévisions météorologiques de plus de 4000 aéroports (messages METAR et TAF).

Les stations disponibles sont représentées par des disques jaunes et rouges sur la carte.

Passer la souris dessus pour voir le nom de la station.

Cliquer dessus pour voir les observations et prévisions météorologiques.

Pour changer de carte: cliquez sur les boutons verts avec une croix noire pour zoomer, sur le bouton vert avec un tiret pour effectuer un zoom arrière, ou sur les flèches vertes pour les cartes adjacentes.


METAR-TAF: